Duckwater, Nevada Weather observations

Data are for 10 minute period ending at time listed.
 Day   Time   Solar   Ave.   Ave.  Ave.  Vector  Max.   Baro.   Total    
  of    of     Rad.   Air    Rel.  Wind   Wind   Wind  Press.  Precip.   
Year   Day            Temp.  Hum.  Speed  Dir.   Gust                    
2017   (PST)   w/m2    F      %     mph   deg.    mph    mb.     in.    
-----------------------------------------------------------------------
  20    6:10      0   27.3    97    6.1   141     8.9   818.4   0.00  
  20    6:20      0   27.5    97    7.4   153    10.7   818.4   0.00  
  20    6:30      0   27.4    96    5.8   149     8.4   818.4   0.00  
  20    6:40      0   27.3    96    7.6   148    11.4   818.4   0.00  
  20    6:50      0   27.3    96    7.2   131    11.1   818.2   0.00  
  20    7:00      1   27.3    96    6.2   126     9.3   818.1   0.00  
  20    7:10      6   27.3    95    4.7   134     6.9   818.0   0.00  
  20    7:20     11   27.2    94    5.4   116     7.6   817.5   0.00  
  20    7:30     19   27.3    94    5.9   116     9.3   817.4   0.00  
  20    7:40     38   27.7    93    5.6   142     7.5   817.5   0.00  
  20    7:50     48   27.4    93    6.1   149     8.4   817.5   0.00  
  20    8:00     61   27.3    94    5.9   151     8.3   817.5   0.00  
  20    8:10     78   27.2    94    5.8   151     8.3   817.3   0.00  
  20    8:20     84   27.4    94    4.7   152     6.2   817.3   0.00  
  20    8:30    101   27.8    94    6.3   138     9.6   817.2   0.00  
  20    8:40    105   28.3    94    5.9   139     9.6   817.1   0.00  
  20    8:50     97   28.9    92    5.0   146     6.9   817.2   0.00  
  20    9:00     91   28.9    91    5.8   136     8.6   817.2   0.00  
  20    9:10     83   29.0    90    6.6   138     9.3   817.3   0.00  
  20    9:20     72   29.1    89    6.7   141     9.7   817.3   0.00  
  20    9:30    101   29.3    89    8.2   136    11.8   817.1   0.00  
  20    9:40    139   29.3    89    9.2   134    12.6   817.0   0.00  
  20    9:50    170   29.2    90   10.1   138    14.6   816.8   0.00  
  20   10:00    191   29.0    91   10.5   143    14.5   816.6   0.00  
  20   10:10    232   28.2    92   10.9   137    15.0   816.4   0.00  
  20   10:20    281   28.2    93   10.3   142    13.7   816.1   0.00  
  20   10:30    283   28.6    92   11.1   144    16.1   815.9   0.00  
  20   10:40    279   28.8    92    9.6   143    13.4   815.6   0.00  
  20   10:50    262   29.3    91    9.5   151    12.9   815.5   0.00  
  20   11:00    250   29.5    91    9.6   148    12.7   815.4   0.00  
  20   11:10    235   29.7    91   10.1   150    13.3   815.1   0.00  
  20   11:20    293   30.2    91    9.6   147    13.3   814.7   0.00  
  20   11:30    269   30.2    91   10.6   141    13.6   814.3   0.00  
  20   11:40    301   30.3    91    9.1   139    14.8   813.7   0.00  
  20   11:50    388   30.9    91    9.3   140    12.5   813.0   0.00  
  20   12:00    306   31.7    89    9.7   170    12.6   813.2   0.00  
  20   12:10    228   31.1    91   10.9   171    13.8   813.1   0.00  
  20   12:20    204   31.2    91   10.6   173    14.8   812.9   0.00  
  20   12:30    204   31.4    91   11.5   172    15.6   812.8   0.00  
  20   12:40    204   31.5    89   10.7   173    14.7   812.8   0.00  
  20   12:50    200   31.8    88   10.6   171    13.5   812.7   0.00  
  20   13:00    187   32.2    87    8.8   157    12.5   812.7   0.01  
  20   13:10    187   32.4    86    7.9   155    12.0   812.6   0.00  
  20   13:20    210   32.3    86    8.3   135    11.3   812.4   0.00  
  20   13:30    244   32.3    84    9.9   129    13.9   812.1   0.01  
  20   13:40    282   32.8    83   10.8   136    14.1   811.9   0.01  
  20   13:50    301   33.2    84   10.1   139    14.7   811.8   0.00  
  20   14:00    219   31.7    88   11.2   129    16.6   811.6   0.00  
  20   14:10    254   31.4    89   12.6   122    19.1   811.2   0.00  
  20   14:20    242   31.2    91   12.7   124    18.0   810.9   0.00  
  20   14:30    407   31.9    91   12.3   138    16.7   810.9   0.00  
  20   14:40    291   32.8    89   12.1   151    16.9   810.8   0.00  
  20   14:50    107   31.4    91   10.8   162    15.4   810.9   0.00  
  20   15:00    216   31.8    92    9.6   158    14.4   810.8   0.00  
  20   15:10    139   32.1    91    8.9   159    12.4   810.9   0.00  
  20   15:20     64   31.4    92    8.1   157    12.5   811.0   0.00  
  20   15:30     84   31.5    91    9.3   150    13.9   810.8   0.00  
  20   15:40     75   31.5    91    8.1   144    11.5   810.7   0.00  
  20   15:50     64   31.3    90    9.7   136    13.8   810.7   0.00  
  20   16:00     77   31.5    89    9.6   134    15.0   810.6   0.00  
  20   16:10     59   32.1    87   10.4   138    14.2   810.6   0.00  
  20   16:20     45   32.1    86   11.0   137    16.3   810.7   0.00  
  20   16:30     28   32.0    86   11.5   140    16.3   810.7   0.00  
  20   16:40     12   31.7    87   11.1   137    15.4   810.6   0.00  
  20   16:50      5   31.7    87   12.0   133    15.6   810.6   0.00  
  20   17:00      3   31.8    86   12.2   140    16.1   810.4   0.00  
  20   17:10      0   31.6    86   11.5   145    17.4   810.4   0.00  
  20   17:20      0   31.7    85   12.3   150    17.4   810.4   0.00  
  20   17:30      0   31.5    86   11.1   146    18.0   810.2   0.00  
  20   17:40      0   31.3    86   11.5   152    16.0   810.3   0.00  
  20   17:50      0   31.4    86   11.8   150    16.5   810.3   0.00  
  20   18:00      0   31.2    86   11.3   144    16.3   810.3   0.00  
  20   18:10      0   31.0    87    9.8   142    13.8   810.4   0.00  
  20   18:20      0   30.9    87   10.3   132    14.4   810.4   0.00  
  20   18:30      0   31.3    86   10.7   138    14.5   810.3   0.00  
  20   18:40      0   31.1    86    8.9   147    12.5   810.2   0.00  
  20   18:50      0   30.8    87    7.7   148    12.2   810.2   0.00  
  20   19:00      0   30.4    88    5.9   138     8.2   810.2   0.00  
  20   19:10      0   30.5    87    5.3   116     8.0   810.4   0.00  
  20   19:20      0   31.0    86    5.1   109     8.0   810.4   0.00  
  20   19:30      0   30.8    86    4.9   139     8.6   810.2   0.00  
  20   19:40      0   29.4    88    2.4   138     5.8   810.2   0.00  
  20   19:50      0   29.3    88    1.5   353     4.3   810.3   0.00  
  20   20:00      0   28.5    90    3.6   132     8.0   810.2   0.00  
  20   20:10      0   28.5    89    2.1   214     7.4   810.3   0.00  
  20   20:20      0   28.3    91    1.1     5     3.1   810.5   0.00  
  20   20:30      0   29.1    90    2.5    88     4.3   810.5   0.00  
  20   20:40      0   29.1    88    2.5    64     4.4   810.7   0.00  
  20   20:50      0   28.8    89    3.0    68     4.8   810.7   0.00  
  20   21:00      0   29.5    88    3.8    96     5.0   810.7   0.00  
  20   21:10      0   29.6    87    3.0   105     4.1   810.7   0.00  
  20   21:20      0   28.9    88    3.0   299     6.6   810.8   0.00  
  20   21:30      0   27.6    89    3.6     6     5.0   810.8   0.00  
  20   21:40      0   27.4    90    3.5    12     5.8   810.8   0.00  
  20   21:50      0   27.4    91    3.5    18     6.7   810.8   0.00  
  20   22:00      0   27.6    91    4.5    12     6.7   810.8   0.00  
  20   22:10      0   27.5    90    3.1    35     4.4   810.8   0.00  
  20   22:20      0   26.0    89    3.0    61     3.7   810.9   0.00  
  20   22:30      0   24.9    90    0.7    33     2.1   811.0   0.00  
  20   22:40      0   24.4    91    0.3    15     2.0   811.0   0.00  
  20   22:50      0   23.9    92    2.0     6     5.4   811.0   0.00  
  20   23:00      0   23.4    92    0.4    34     2.4   811.1   0.00  
  20   23:10      0   22.4    92    1.6    50     4.5   811.0   0.00  
  20   23:20      0   21.6    93    2.9   343     6.0   811.0   0.00  
  20   23:30      0   21.1    94    5.8   354     9.1   811.1   0.00  
  20   23:40      0   21.4    93    6.1     9     9.1   811.1   0.00  
  20   23:50      0   21.6    92    4.5    15     6.4   811.0   0.00  
  21    0:00      0   22.3    93    3.6    12     5.2   811.0   0.00  
  21    0:10      0   21.2    91    6.0   342     8.7   811.1   0.00  
  21    0:20      0   20.0    90    3.4    30     5.5   811.2   0.00  
  21    0:30      0   19.3    90    3.9    19     6.0   811.3   0.00  
  21    0:40      0   18.8    91    2.7    12     5.1   811.5   0.00  
  21    0:50      0   17.8    91    0.6     1     2.3   811.6   0.00  
  21    1:00      0   18.4    93    2.7   331     4.2   811.7   0.00  
  21    1:10      0   19.2    93    1.4   323     3.6   811.9   0.00  
  21    1:20      0   19.8    93    0.2   339     1.1   811.9   0.00  
  21    1:30      0   19.3    92    1.9   309     4.9   812.0   0.00  
  21    1:40      0   16.9    92    3.5   330     6.8   812.1   0.00  
  21    1:50      0   18.1    93    3.8   345     6.2   812.4   0.00  
  21    2:00      0   18.2    92    3.0    31     7.4   812.6   0.00  
  21    2:10      0   19.2    92    3.3     6     5.6   812.8   0.00  
  21    2:20      0   20.9    91    6.1    10    10.5   812.8   0.00  
  21    2:30      0   21.8    89    6.5    13     9.4   812.9   0.00  
  21    2:40      0   22.7    88    7.9     1    11.6   813.1   0.00  
  21    2:50      0   23.1    88    8.8    12    13.4   813.2   0.00  
  21    3:00      0   24.4    87    5.2    10     9.5   813.2   0.00  
  21    3:10      0   24.4    88    3.5   356     6.6   813.4   0.00  
  21    3:20      0   24.7    88    1.1   351     4.1   813.4   0.00  
  21    3:30      0   21.5    88    2.1   280     4.3   813.6   0.00  
  21    3:40      0   20.3    91    4.1   277     5.8   813.8   0.00  
  21    3:50      0   19.1    91    1.8   268     3.4   813.9   0.00  
  21    4:00      0   18.0    91    0.6   268     2.2   814.1   0.00  
  21    4:10      0   17.3    92    0.4   268     1.8   814.3   0.00  
  21    4:20      0   16.8    93    1.3   275     3.2   814.4   0.00  
  21    4:30      0   15.3    93    2.3    59     4.0   814.6   0.00  
  21    4:40      0   14.5    93    0.6    60     1.9   814.7   0.00  
  21    4:50      0   14.6    93    0.5    58     1.5   814.8   0.00  
  21    5:00      0   14.7    94    0.4    54     2.8   815.0   0.00  
  21    5:10      0   15.9    94    3.0    22     5.2   815.2   0.00  
  21    5:20      0   16.1    93    3.3    33     5.6   815.4   0.00  
  21    5:30      0   17.1    92    0.7   350     2.6   815.5   0.00  
  21    5:40      0   18.2    93    0.7   320     2.8   815.7   0.00  
  21    5:50      0   15.9    90    3.6   272     5.7   816.0   0.00  
  21    6:00      0   14.8    90    1.5   297     4.5   816.2   0.00  

Return to Duckwater graphs page.


Western Regional Climate Center,wrcc@dri.edu